Flight Number: EUR1100 Duration: 2:45
Departure: Bucharest Otopeni (LROP) at 18:15 Distance: 1126 Nm
Arrival: Gatwick Airport (EGKK) at 21:00 Equipment: MD-81

Weather Information
Bucuresti Otopeni, Romania (LROP) 44-33N 026-06E 95M Jan 23, 2018 - 04:30 AM EST / 2018.01.23 0930 UTC
Wind: from the WSW (250 degrees) at 6 MPH (5 KT):0
Visibility: 3 mile(s):0
Sky conditions: overcast Weather: mist Temperature: 32 F (0 C)
Windchill: 26 F (-3 C):1 Dew Point: 30 F (-1 C) Relative Humidity: 92% Pressure (altimeter): 30.21 in. Hg (1023 hPa)
ob: LROP 230930Z 25005KT 5000 BR OVC045 00/M01 Q1023 R08R/29//95 R08L/29//95 NOSIG cycle: 9
Sunrise: 05:46 Sunset: 15:08 (UTC)

London / Gatwick Airport, United Kingdom (EGKK) 51-09N 000-11W 0M Jan 23, 2018 - 04:20 AM EST / 2018.01.23 0920 UTC
Wind: from the SSW (200 degrees) at 10 MPH (9 KT):0
Visibility: 2 mile(s):0
Sky conditions: overcast Weather: drizzle; mist Temperature: 48 F (9 C) Dew Point: 48 F (9 C) Relative Humidity: 100% Pressure (altimeter): 30.00 in. Hg (1016 hPa)
ob: EGKK 230920Z 20009KT 3500 DZ BR OVC004 09/09 Q1016 cycle: 9
Sunrise: 07:53 Sunset: 16:31 (UTC)

TAF:2018/01/23 06:47 TAF EGKK 230500Z 2306/2412 21010KT 9999 SCT030 BECMG 2306/2308 BKN012 TEMPO 2307/2403 7000 -RA BKN008 PROB40 TEMPO 2307/2314 3000 RADZ BKN004 PROB30 TEMPO 2312/2324 24015G25KT PROB30 TEMPO 2314/2317 BKN018 PROB30 TEMPO 2317/2324 3000 RADZ BKN004 BECMG 2400/2403 20015G25KT TEMPO 2403/2412 20025G38KT 4000 RADZ BKN006

Previous Pireps for this route
Date Aircraft Flight time Fuel used Landing rate On time
2012-07-16MD-813.05220000Yes
2012-12-07MD-8103.1719566-206Yes
2015-09-01MD-812.5623701-297Yes
(pireps marked green are flown by you)

Route map